Time;durP1;ratioP1;P1;durP2;ratioP2;P2;SDS_P1;SDS_P2;PMS_P1;PMS_P2;Temp;Humidity;BMP_temperature;BMP_pressure;BME280_temperature;BME280_humidity;BME280_pressure;Samples;Min_cycle;Max_cycle;Signal;HPM_P1;HPM_P2
2022/06/25 00:01:46;;;;;;;5.72;1.13;;;;;;;15.49;81.53;99864.59;5082871;28;20039;-81
2022/06/25 00:06:56;;;;;;;6.72;1.33;;;;;;;15.44;81.85;99862.84;5098443;28;20105;-80
2022/06/25 00:09:21;;;;;;;5.43;1.30;;;;;;;15.38;81.49;99864.22;5091813;28;20027;-81
2022/06/25 00:14:31;;;;;;;8.07;1.38;;;;;;;15.34;81.69;99861.28;5095291;28;20131;-80
2022/06/25 00:16:56;;;;;;;8.68;1.38;;;;;;;15.31;81.33;99861.16;5080801;28;20031;-80
2022/06/25 00:19:23;;;;;;;7.07;1.40;;;;;;;15.27;81.53;99860.22;5097531;28;20051;-80
2022/06/25 00:21:49;;;;;;;6.85;1.08;;;;;;;15.23;81.57;99867.63;5092218;28;20028;-80
2022/06/25 00:24:16;;;;;;;8.63;1.10;;;;;;;15.16;81.54;99865.38;5063916;28;20115;-80
2022/06/25 00:26:42;;;;;;;6.80;1.40;;;;;;;15.11;81.57;99866.41;5126313;28;20031;-81
2022/06/25 00:29:10;;;;;;;5.57;1.17;;;;;;;15.12;81.30;99862.44;5088420;28;20032;-80
2022/06/25 00:31:35;;;;;;;6.10;1.20;;;;;;;15.09;81.79;99860.31;5085793;28;20392;-80
2022/06/25 00:34:01;;;;;;;4.68;0.93;;;;;;;15.03;81.69;99872.06;5097587;28;20039;-81
2022/06/25 00:36:26;;;;;;;7.82;1.10;;;;;;;15.00;81.86;99867.16;5089721;28;20036;-80
2022/06/25 00:38:52;;;;;;;2.70;0.93;;;;;;;15.00;81.77;99869.94;5080588;28;20028;-81
2022/06/25 00:41:17;;;;;;;8.38;1.40;;;;;;;14.95;82.21;99866.16;5097309;28;20035;-81
2022/06/25 00:43:43;;;;;;;6.10;1.30;;;;;;;14.93;82.20;99868.50;5097864;28;20028;-80
2022/06/25 00:46:08;;;;;;;6.82;1.15;;;;;;;14.91;82.30;99867.22;5089626;28;20024;-80
2022/06/25 00:48:34;;;;;;;13.10;1.38;;;;;;;14.85;82.25;99874.97;5087103;28;20055;-81
2022/06/25 00:50:59;;;;;;;6.53;1.30;;;;;;;14.86;81.85;99873.00;5090096;28;20490;-81
2022/06/25 00:53:28;;;;;;;5.95;1.40;;;;;;;14.82;81.90;99864.47;5063612;28;20063;-81
2022/06/25 00:55:54;;;;;;;7.90;1.30;;;;;;;14.81;82.13;99873.19;5071810;28;20036;-81
2022/06/25 00:58:20;;;;;;;5.22;1.13;;;;;;;14.78;82.44;99871.88;5070325;28;20027;-81
2022/06/25 01:00:45;;;;;;;6.32;1.33;;;;;;;14.73;82.66;99864.50;5089656;28;20024;-81
2022/06/25 01:03:10;;;;;;;4.35;1.10;;;;;;;14.69;82.33;99874.72;5061712;28;20032;-81
2022/06/25 01:05:36;;;;;;;6.93;1.20;;;;;;;14.69;82.38;99877.53;5100151;28;20032;-81
2022/06/25 01:08:01;;;;;;;8.57;1.30;;;;;;;14.70;81.94;99870.75;5078417;28;20110;-81
2022/06/25 01:10:27;;;;;;;2.95;0.98;;;;;;;14.64;82.16;99872.13;5092550;28;20020;-81
2022/06/25 01:12:52;;;;;;;4.20;1.00;;;;;;;14.64;82.22;99874.09;5087505;28;20024;-81
2022/06/25 01:15:18;;;;;;;5.00;1.13;;;;;;;14.61;82.59;99863.59;5092453;28;20043;-81
2022/06/25 01:17:45;;;;;;;8.18;1.42;;;;;;;14.56;82.49;99861.00;5065473;28;20032;-81
2022/06/25 01:20:11;;;;;;;7.82;1.40;;;;;;;14.52;82.56;99863.66;5104031;28;20051;-80
2022/06/25 01:22:36;;;;;;;6.75;1.23;;;;;;;14.52;82.42;99861.66;5083451;28;20034;-81
2022/06/25 01:25:02;;;;;;;6.13;1.17;;;;;;;14.49;82.56;99865.09;5058438;28;20028;-81
2022/06/25 01:27:27;;;;;;;5.57;1.30;;;;;;;14.48;82.42;99862.63;5076402;28;20383;-81
2022/06/25 01:29:53;;;;;;;5.60;1.10;;;;;;;14.46;82.53;99867.75;5090540;28;20388;-80
2022/06/25 01:32:18;;;;;;;8.77;1.60;;;;;;;14.40;82.59;99861.53;5078190;28;20032;-81
2022/06/25 01:34:44;;;;;;;3.05;1.00;;;;;;;14.37;82.47;99864.97;5074313;28;20028;-80
2022/06/25 01:37:09;;;;;;;5.68;1.30;;;;;;;14.36;83.19;99860.56;5099776;28;20072;-80
2022/06/25 01:39:34;;;;;;;7.13;1.40;;;;;;;14.36;82.77;99868.94;5085241;28;20030;-80
2022/06/25 01:42:00;;;;;;;10.02;1.67;;;;;;;14.32;82.85;99856.81;5074472;28;20028;-81
2022/06/25 01:44:26;;;;;;;4.90;0.90;;;;;;;14.28;82.88;99856.63;5090830;28;20141;-81
2022/06/25 01:46:51;;;;;;;7.45;1.77;;;;;;;14.28;82.75;99859.44;5093004;28;20118;-80
2022/06/25 01:49:17;;;;;;;8.55;1.33;;;;;;;14.28;82.51;99864.19;5065709;28;20039;-81
2022/06/25 01:51:42;;;;;;;8.23;1.55;;;;;;;14.22;82.85;99854.38;5094237;28;20031;-81
2022/06/25 01:54:08;;;;;;;7.82;1.65;;;;;;;14.19;82.93;99843.88;5095537;28;20056;-81
2022/06/25 01:56:33;;;;;;;6.55;1.02;;;;;;;14.16;82.73;99841.75;5090692;28;20036;-80
2022/06/25 01:58:59;;;;;;;5.30;1.17;;;;;;;14.14;82.68;99844.06;5091432;28;20384;-80
2022/06/25 02:01:25;;;;;;;8.43;1.42;;;;;;;14.09;82.67;99845.84;5087812;28;20039;-81
2022/06/25 02:03:51;;;;;;;6.05;1.20;;;;;;;14.07;82.66;99850.97;5078670;28;20027;-81
2022/06/25 02:06:16;;;;;;;8.68;1.38;;;;;;;14.03;82.64;99847.19;5094539;28;20059;-81
2022/06/25 02:08:42;;;;;;;5.10;1.23;;;;;;;14.00;82.53;99847.06;5093630;28;20028;-81
2022/06/25 02:11:08;;;;;;;6.32;1.38;;;;;;;13.96;82.79;99857.25;5066280;28;20027;-81
2022/06/25 02:13:34;;;;;;;6.55;1.25;;;;;;;13.94;82.73;99854.78;5079651;28;20047;-80
2022/06/25 02:16:00;;;;;;;5.97;1.17;;;;;;;13.88;82.64;99858.91;5083736;28;20476;-81
2022/06/25 02:18:26;;;;;;;5.97;1.05;;;;;;;13.88;82.78;99872.06;5081338;28;20055;-81
2022/06/25 02:20:51;;;;;;;3.85;0.85;;;;;;;13.80;82.61;99871.72;5093941;28;20031;-81
2022/06/25 02:23:17;;;;;;;5.45;1.60;;;;;;;13.83;82.73;99865.47;5108889;28;20028;-81
2022/06/25 02:25:42;;;;;;;6.78;1.35;;;;;;;13.78;82.82;99862.88;5090804;28;20065;-81
2022/06/25 02:28:08;;;;;;;6.20;0.90;;;;;;;13.74;82.88;99863.88;5073264;28;20032;-81
2022/06/25 02:30:33;;;;;;;6.13;1.10;;;;;;;13.73;82.92;99854.66;5065887;28;20019;-80
2022/06/25 02:32:59;;;;;;;5.38;1.08;;;;;;;13.70;82.75;99866.50;5086835;28;20464;-81
2022/06/25 02:35:24;;;;;;;5.30;1.27;;;;;;;13.68;82.83;99867.97;5093794;28;20028;-81
2022/06/25 02:37:50;;;;;;;5.80;1.23;;;;;;;13.66;82.74;99864.72;5101555;28;20044;-81
2022/06/25 02:40:15;;;;;;;5.00;1.17;;;;;;;13.59;83.16;99857.63;5065709;28;20081;-81
2022/06/25 02:42:41;;;;;;;9.00;1.30;;;;;;;13.60;83.07;99864.88;5087856;28;20491;-81
2022/06/25 02:45:08;;;;;;;5.15;1.33;;;;;;;13.56;83.15;99860.28;5080577;28;20119;-81
2022/06/25 02:47:33;;;;;;;4.47;0.93;;;;;;;13.52;83.28;99850.94;5093025;28;20079;-82
2022/06/25 02:49:59;;;;;;;4.68;1.15;;;;;;;13.51;83.33;99861.28;5093752;28;20673;-81
2022/06/25 02:52:24;;;;;;;7.95;1.30;;;;;;;13.53;83.70;99866.50;5110272;28;20126;-81
2022/06/25 02:54:50;;;;;;;8.57;1.42;;;;;;;13.47;84.09;99860.28;5073563;28;20056;-81
2022/06/25 03:00:00;;;;;;;5.68;1.15;;;;;;;13.44;83.69;99858.16;5099372;28;20035;-81
2022/06/25 03:02:26;;;;;;;5.93;1.17;;;;;;;13.48;83.83;99859.13;5083267;28;20027;-81
2022/06/25 03:04:52;;;;;;;6.07;1.35;;;;;;;13.46;84.08;99855.06;5091440;28;20131;-81
2022/06/25 03:07:17;;;;;;;8.40;1.25;;;;;;;13.45;84.09;99861.75;5092833;28;20023;-81
2022/06/25 03:09:43;;;;;;;6.38;1.33;;;;;;;13.47;84.12;99863.06;5113432;28;20085;-81
2022/06/25 03:12:08;;;;;;;6.88;1.33;;;;;;;13.42;84.53;99868.81;5092078;28;20032;-81
2022/06/25 03:14:34;;;;;;;3.95;1.20;;;;;;;13.44;84.29;99868.50;5060447;28;20387;-81
2022/06/25 03:16:59;;;;;;;11.13;1.83;;;;;;;13.45;84.30;99870.94;5073441;28;20468;-81
2022/06/25 03:19:25;;;;;;;6.45;1.25;;;;;;;13.43;84.27;99876.06;5080433;28;20399;-80
2022/06/25 03:21:50;;;;;;;5.85;1.33;;;;;;;13.39;84.61;99873.06;5089628;28;20024;-81
2022/06/25 03:24:16;;;;;;;6.25;1.30;;;;;;;13.44;84.42;99868.50;5076193;28;20036;-80
2022/06/25 03:26:42;;;;;;;5.97;1.20;;;;;;;13.43;84.56;99867.69;5063789;28;20464;-80
2022/06/25 03:29:08;;;;;;;5.25;1.00;;;;;;;13.42;84.52;99871.59;5092889;28;20115;-80
2022/06/25 03:31:33;;;;;;;6.45;1.50;;;;;;;13.40;84.34;99871.13;5092828;28;20059;-81
2022/06/25 03:33:59;;;;;;;5.95;1.10;;;;;;;13.37;84.37;99871.75;5077190;28;20036;-80
2022/06/25 03:36:24;;;;;;;9.43;1.50;;;;;;;13.37;84.16;99874.56;5088491;28;20043;-81
2022/06/25 03:38:50;;;;;;;7.13;1.35;;;;;;;13.38;84.12;99870.63;5105371;28;20028;-80
2022/06/25 03:41:35;;;;;;;5.35;1.02;;;;;;;13.34;84.22;99869.63;5098163;28;20242;-80
2022/06/25 03:44:04;;;;;;;6.35;1.20;;;;;;;13.30;84.16;99869.47;5093278;28;20387;-80
2022/06/25 03:46:30;;;;;;;6.38;1.10;;;;;;;13.31;83.82;99870.28;5093892;28;20468;-80
2022/06/25 03:48:56;;;;;;;7.20;1.50;;;;;;;13.27;83.85;99874.91;5064607;28;20104;-80
2022/06/25 03:51:21;;;;;;;5.20;1.00;;;;;;;13.22;83.66;99869.44;5064111;28;20019;-81
2022/06/25 03:53:46;;;;;;;6.90;1.20;;;;;;;13.21;83.62;99860.28;5089374;28;20458;-82
2022/06/25 03:56:12;;;;;;;8.13;1.45;;;;;;;13.20;83.87;99858.59;5087957;28;20036;-81
2022/06/25 03:58:38;;;;;;;5.68;1.25;;;;;;;13.19;83.78;99857.78;5079304;28;20031;-79
2022/06/25 04:01:03;;;;;;;5.88;1.40;;;;;;;13.18;83.88;99860.94;5092835;28;20068;-80
2022/06/25 04:03:29;;;;;;;4.32;1.15;;;;;;;13.12;84.39;99860.25;5064079;28;20016;-80
2022/06/25 04:05:55;;;;;;;4.78;1.00;;;;;;;13.15;84.35;99869.94;5064391;28;20488;-81
2022/06/25 04:08:20;;;;;;;4.13;1.23;;;;;;;13.12;84.03;99857.47;5075317;28;20020;-80
2022/06/25 04:10:46;;;;;;;6.55;1.23;;;;;;;13.12;83.95;99859.41;5071790;28;20039;-80
2022/06/25 04:13:11;;;;;;;8.75;1.23;;;;;;;13.08;84.28;99850.91;5080647;28;20023;-78
2022/06/25 04:15:37;;;;;;;5.63;1.10;;;;;;;13.09;84.73;99858.13;5074697;28;20055;-81
2022/06/25 04:18:03;;;;;;;5.68;1.17;;;;;;;13.07;85.08;99849.28;5080831;28;20028;-81
2022/06/25 04:20:29;;;;;;;4.78;1.20;;;;;;;13.08;84.86;99844.50;5077483;28;20057;-81
2022/06/25 04:22:54;;;;;;;8.82;1.50;;;;;;;13.08;84.87;99856.47;5066956;28;20384;-81
2022/06/25 04:25:20;;;;;;;5.40;1.08;;;;;;;13.09;85.36;99857.28;5087375;28;20101;-81
2022/06/25 04:30:29;;;;;;;3.95;1.30;;;;;;;13.09;85.42;99841.41;5093092;28;20651;-81
2022/06/25 04:32:54;;;;;;;8.15;1.15;;;;;;;13.13;85.95;99847.97;5084318;28;20093;-81
2022/06/25 04:35:20;;;;;;;5.20;1.10;;;;;;;13.13;85.63;99852.72;5070531;28;20039;-81
2022/06/25 04:37:45;;;;;;;5.38;1.20;;;;;;;13.17;86.30;99856.47;5095547;28;20471;-81
2022/06/25 04:40:11;;;;;;;11.63;1.65;;;;;;;13.20;85.55;99861.41;5096725;28;20080;-80
2022/06/25 04:42:36;;;;;;;8.30;1.63;;;;;;;13.18;87.09;99856.16;5111921;28;20045;-81
2022/06/25 04:45:02;;;;;;;8.98;1.50;;;;;;;13.19;87.15;99857.78;5063825;28;20102;-80
2022/06/25 04:47:28;;;;;;;10.05;1.30;;;;;;;13.22;87.19;99852.72;5084573;28;20032;-80
2022/06/25 04:49:53;;;;;;;5.78;1.17;;;;;;;13.23;86.95;99851.56;5094771;28;20036;-81
2022/06/25 04:52:19;;;;;;;5.00;1.40;;;;;;;13.27;87.50;99849.81;5081220;28;20036;-81
2022/06/25 04:54:44;;;;;;;8.75;1.50;;;;;;;13.30;87.47;99843.56;5079239;28;20085;-82
2022/06/25 04:57:09;;;;;;;5.88;1.30;;;;;;;13.32;87.56;99858.00;5101217;28;20027;-81
2022/06/25 04:59:35;;;;;;;8.85;1.77;;;;;;;13.32;88.38;99846.84;5077556;28;20035;-81
2022/06/25 05:02:00;;;;;;;10.10;1.48;;;;;;;13.33;87.59;99848.47;5078198;28;20027;-81
2022/06/25 05:04:26;;;;;;;6.28;1.33;;;;;;;13.35;87.11;99848.97;5080745;28;20028;-80
2022/06/25 05:06:52;;;;;;;9.60;1.30;;;;;;;13.37;87.37;99846.66;5091025;28;20027;-81
2022/06/25 05:09:17;;;;;;;4.82;1.13;;;;;;;13.39;87.72;99847.16;5091592;28;20024;-81
2022/06/25 05:11:43;;;;;;;8.63;1.27;;;;;;;13.41;87.94;99850.44;5067245;28;20027;-81
2022/06/25 05:14:09;;;;;;;5.93;1.20;;;;;;;13.43;88.42;99856.53;5099304;28;20032;-81
2022/06/25 05:16:34;;;;;;;8.40;1.40;;;;;;;13.46;88.34;99853.06;5071646;28;20052;-81
2022/06/25 05:19:00;;;;;;;7.85;1.40;;;;;;;13.46;87.67;99844.72;5093053;28;20020;-81
2022/06/25 05:21:25;;;;;;;6.82;1.48;;;;;;;13.49;88.61;99844.03;5111679;28;20035;-81
2022/06/25 05:23:50;;;;;;;4.72;1.05;;;;;;;13.51;89.37;99846.50;5078590;28;20650;-81
2022/06/25 05:26:16;;;;;;;7.88;1.80;;;;;;;13.57;87.98;99857.16;5094063;28;20032;-82
2022/06/25 05:28:41;;;;;;;8.80;1.58;;;;;;;13.60;88.38;99850.94;5082026;28;20392;-81
2022/06/25 05:31:07;;;;;;;9.00;1.70;;;;;;;13.62;88.31;99845.84;5092490;28;20062;-82
2022/06/25 05:33:33;;;;;;;7.47;1.77;;;;;;;13.64;89.29;99856.66;5091388;28;20373;-81
2022/06/25 05:35:58;;;;;;;5.43;1.50;;;;;;;13.65;89.73;99841.56;5072710;28;20468;-82
2022/06/25 05:38:24;;;;;;;5.68;1.58;;;;;;;13.69;89.79;99848.13;5091758;28;20031;-81
2022/06/25 05:40:49;;;;;;;11.10;1.65;;;;;;;13.72;89.25;99843.84;5100320;28;20035;-81
2022/06/25 05:43:14;;;;;;;12.45;2.20;;;;;;;13.77;90.22;99857.63;5082838;28;20028;-81
2022/06/25 05:45:40;;;;;;;9.70;1.70;;;;;;;13.80;90.06;99863.34;5075391;28;20032;-81
2022/06/25 05:48:06;;;;;;;9.55;1.85;;;;;;;13.84;89.71;99871.88;5066134;28;20218;-81
2022/06/25 05:50:31;;;;;;;7.32;1.50;;;;;;;13.87;89.86;99871.22;5076832;28;20502;-81
2022/06/25 05:52:57;;;;;;;10.30;1.35;;;;;;;13.90;88.96;99859.41;5090488;28;20032;-80
2022/06/25 05:55:23;;;;;;;8.68;1.48;;;;;;;13.97;88.91;99856.91;5083085;28;20044;-82
2022/06/25 05:57:49;;;;;;;11.35;1.90;;;;;;;14.02;89.53;99867.09;5073717;28;20116;-81
2022/06/25 06:00:15;;;;;;;6.40;1.38;;;;;;;14.03;88.88;99868.72;5066138;28;20039;-78
2022/06/25 06:02:43;;;;;;;5.95;1.60;;;;;;;14.11;87.81;99861.47;5080120;28;20123;-79
2022/06/25 06:05:12;;;;;;;7.40;1.52;;;;;;;14.13;89.00;99868.38;5110105;28;20100;-79
2022/06/25 06:07:48;;;;;;;9.43;1.30;;;;;;;14.17;89.70;99879.69;5073893;28;20035;-80
2022/06/25 06:10:16;;;;;;;8.90;1.75;;;;;;;14.21;89.74;99877.88;5078334;28;20476;-76
2022/06/25 06:12:42;;;;;;;9.63;1.63;;;;;;;14.25;89.18;99888.03;5087426;28;20062;-75
2022/06/25 06:15:08;;;;;;;8.13;1.45;;;;;;;14.29;91.20;99883.44;5063784;28;20027;-74
2022/06/25 06:17:33;;;;;;;13.60;1.70;;;;;;;14.35;89.85;99884.06;5080901;28;20035;-74
2022/06/25 06:19:59;;;;;;;10.50;1.58;;;;;;;14.39;90.43;99881.41;5093070;28;20396;-75
2022/06/25 06:22:24;;;;;;;8.05;1.30;;;;;;;14.44;89.44;99879.25;5094420;28;20027;-75
2022/06/25 06:24:50;;;;;;;9.48;1.50;;;;;;;14.48;89.04;99883.00;5054905;28;20023;-75
2022/06/25 06:27:15;;;;;;;10.13;2.03;;;;;;;14.55;89.43;99881.72;5088077;28;20082;-76
2022/06/25 06:29:41;;;;;;;9.73;1.42;;;;;;;14.59;89.66;99880.69;5099412;28;20024;-75
2022/06/25 06:32:07;;;;;;;7.47;1.52;;;;;;;14.66;90.84;99882.97;5108178;28;20032;-76
2022/06/25 06:34:32;;;;;;;11.73;1.75;;;;;;;14.69;90.43;99885.09;5111425;28;20055;-76
2022/06/25 06:36:58;;;;;;;10.60;1.50;;;;;;;14.77;89.87;99889.00;5111020;28;20031;-76
2022/06/25 06:39:23;;;;;;;9.15;1.80;;;;;;;14.83;89.40;99891.25;5090038;28;20031;-74
2022/06/25 06:41:48;;;;;;;11.30;1.77;;;;;;;14.88;90.87;99885.47;5117493;28;20031;-76
2022/06/25 06:44:14;;;;;;;9.68;1.52;;;;;;;14.94;90.10;99891.69;5098938;28;20034;-77
2022/06/25 06:46:40;;;;;;;4.47;1.30;;;;;;;15.00;89.13;99907.09;5089441;28;20028;-76
2022/06/25 06:49:05;;;;;;;10.40;1.92;;;;;;;15.03;90.72;99900.03;5110422;28;20035;-82
2022/06/25 06:51:31;;;;;;;10.30;1.83;;;;;;;15.09;90.58;99893.06;5093673;28;20036;-82
2022/06/25 06:53:56;;;;;;;7.45;1.30;;;;;;;15.15;89.69;99895.31;5095219;28;20052;-81
2022/06/25 06:56:22;;;;;;;11.02;1.90;;;;;;;15.18;89.46;99897.47;5065501;28;20422;-81
2022/06/25 06:58:48;;;;;;;8.00;1.92;;;;;;;15.24;89.65;99900.88;5089436;28;20028;-81
2022/06/25 07:01:14;;;;;;;10.52;1.80;;;;;;;15.28;89.68;99889.81;5081730;28;20433;-81
2022/06/25 07:03:39;;;;;;;11.57;1.95;;;;;;;15.34;90.10;99902.44;5065177;28;20016;-81
2022/06/25 07:06:05;;;;;;;9.75;1.55;;;;;;;15.40;90.69;99903.84;5098079;28;20038;-81
2022/06/25 07:08:30;;;;;;;11.27;2.42;;;;;;;15.46;90.48;99894.13;5081970;28;20092;-81
2022/06/25 07:10:56;;;;;;;12.48;1.83;;;;;;;15.53;90.46;99885.97;5088639;28;20476;-82
2022/06/25 07:13:21;;;;;;;10.45;1.80;;;;;;;15.60;90.54;99891.84;5080929;28;20028;-81
2022/06/25 07:15:47;;;;;;;10.63;1.60;;;;;;;15.66;90.63;99886.88;5072010;28;20036;-81
2022/06/25 07:18:12;;;;;;;11.15;1.83;;;;;;;15.73;90.63;99873.13;5097966;28;20028;-81
2022/06/25 07:20:38;;;;;;;12.77;2.03;;;;;;;15.81;89.58;99880.63;5088144;28;20488;-81
2022/06/25 07:23:03;;;;;;;7.35;1.98;;;;;;;15.91;88.97;99873.81;5091711;28;20047;-81
2022/06/25 07:25:29;;;;;;;13.05;1.90;;;;;;;16.00;88.98;99868.09;5081835;28;20019;-81
2022/06/25 07:27:54;;;;;;;11.15;1.73;;;;;;;16.10;89.65;99881.66;5078152;28;20020;-81
2022/06/25 07:30:20;;;;;;;10.57;2.08;;;;;;;16.22;89.38;99866.88;5085529;28;20050;-81
2022/06/25 07:32:45;;;;;;;13.25;1.65;;;;;;;16.34;88.64;99868.88;5074244;28;20035;-81
2022/06/25 07:35:10;;;;;;;7.13;1.83;;;;;;;16.42;88.11;99863.16;5072228;28;20661;-81
2022/06/25 07:37:36;;;;;;;7.90;2.05;;;;;;;16.53;87.54;99877.53;5091995;28;20051;-81
2022/06/25 07:40:03;;;;;;;10.32;1.83;;;;;;;16.60;87.15;99877.75;5074354;28;20432;-81
2022/06/25 07:42:30;;;;;;;8.55;1.45;;;;;;;16.69;87.25;99864.44;5086380;28;20077;-82
2022/06/25 07:44:56;;;;;;;9.50;2.03;;;;;;;16.76;87.34;99877.88;5073805;28;20057;-81
2022/06/25 07:47:21;;;;;;;8.93;1.85;;;;;;;16.82;86.65;99879.28;5090566;28;20024;-82
2022/06/25 07:52:31;;;;;;;8.95;1.83;;;;;;;16.95;88.08;99857.69;5115948;28;20432;-75
2022/06/25 07:54:56;;;;;;;9.82;1.90;;;;;;;17.01;87.63;99859.06;5098299;28;20099;-75
2022/06/25 07:57:22;;;;;;;10.73;1.80;;;;;;;17.11;86.55;99867.00;5107118;28;20507;-75
2022/06/25 07:59:47;;;;;;;17.58;2.28;;;;;;;17.16;86.15;99880.78;5110237;28;20039;-75
2022/06/25 08:02:13;;;;;;;16.90;1.80;;;;;;;17.25;85.71;99879.84;5108356;28;20039;-75
2022/06/25 08:04:38;;;;;;;15.05;2.28;;;;;;;17.31;84.89;99870.81;5108874;28;20031;-75
2022/06/25 08:07:04;;;;;;;10.88;1.85;;;;;;;17.38;85.58;99861.78;5104964;28;20028;-75
2022/06/25 08:09:30;;;;;;;18.17;2.83;;;;;;;17.47;85.80;99867.25;5097384;28;20030;-75
2022/06/25 08:11:55;;;;;;;10.27;1.90;;;;;;;17.59;85.17;99862.41;5109758;28;20472;-75
2022/06/25 08:14:21;;;;;;;11.15;2.13;;;;;;;17.72;84.89;99871.59;5092416;28;20070;-75
2022/06/25 08:16:46;;;;;;;12.40;2.17;;;;;;;17.88;85.32;99868.84;5110709;28;20031;-75
2022/06/25 08:19:12;;;;;;;14.93;2.65;;;;;;;18.08;84.13;99876.25;5120249;28;20019;-75
2022/06/25 08:21:37;;;;;;;10.38;1.92;;;;;;;18.26;82.58;99864.66;5119843;28;20504;-75
2022/06/25 08:24:03;;;;;;;9.30;2.20;;;;;;;18.44;81.71;99868.75;5092186;28;20058;-75
2022/06/25 08:26:29;;;;;;;12.32;2.25;;;;;;;18.62;80.57;99862.75;5120025;28;20032;-75
2022/06/25 08:28:54;;;;;;;15.88;2.65;;;;;;;18.76;79.35;99868.75;5120091;28;20023;-76
2022/06/25 08:31:20;;;;;;;12.05;2.10;;;;;;;18.91;78.74;99853.84;5120102;28;20046;-76
2022/06/25 08:33:45;;;;;;;17.20;2.95;;;;;;;19.04;77.81;99862.19;5112754;28;20077;-75
2022/06/25 08:36:11;;;;;;;12.40;2.17;;;;;;;19.16;77.61;99859.22;5110030;28;20023;-75
2022/06/25 08:38:37;;;;;;;14.45;2.45;;;;;;;19.27;76.56;99865.09;5119338;28;20032;-73
2022/06/25 08:41:02;;;;;;;12.02;2.13;;;;;;;19.35;75.58;99870.50;5119780;28;20024;-73
2022/06/25 08:43:28;;;;;;;12.32;2.90;;;;;;;19.38;74.70;99868.97;5119735;28;20024;-71
2022/06/25 08:45:55;;;;;;;16.40;2.67;;;;;;;19.39;74.61;99859.34;5113152;28;20035;-74
2022/06/25 08:48:24;;;;;;;5.90;1.90;;;;;;;19.36;75.32;99866.53;5119672;28;20027;-74
2022/06/25 08:50:50;;;;;;;8.88;2.33;;;;;;;19.32;75.93;99873.25;5074761;28;20031;-74
2022/06/25 08:53:16;;;;;;;8.05;1.90;;;;;;;19.26;75.92;99869.91;5115372;28;20028;-73
2022/06/25 08:55:44;;;;;;;12.50;2.25;;;;;;;19.20;76.91;99877.84;5108892;28;20052;-74
2022/06/25 08:58:10;;;;;;;13.60;2.88;;;;;;;19.14;77.52;99873.69;5111069;28;20059;-74
2022/06/25 09:00:38;;;;;;;11.85;2.17;;;;;;;19.08;78.36;99866.69;5119079;28;20024;-74
2022/06/25 09:03:04;;;;;;;13.07;2.17;;;;;;;18.98;79.41;99859.66;5119137;28;20022;-74
2022/06/25 09:05:33;;;;;;;11.63;1.90;;;;;;;18.94;79.57;99860.72;5108212;28;20492;-74
2022/06/25 09:08:00;;;;;;;13.52;2.13;;;;;;;18.87;81.12;99852.94;5110440;28;20084;-73
2022/06/25 09:10:27;;;;;;;11.45;2.20;;;;;;;18.81;80.25;99865.69;5112616;28;20031;-73
2022/06/25 09:12:56;;;;;;;11.98;2.50;;;;;;;18.75;81.60;99867.94;5119131;28;20024;-73
2022/06/25 09:15:23;;;;;;;6.45;1.80;;;;;;;18.74;80.79;99855.06;5106849;28;20024;-73
2022/06/25 09:17:49;;;;;;;6.53;1.80;;;;;;;18.71;80.39;99843.69;5112411;28;20036;-73
2022/06/25 09:20:15;;;;;;;14.40;2.88;;;;;;;18.70;79.68;99854.13;5118520;28;20031;-73
2022/06/25 09:22:41;;;;;;;10.30;3.15;;;;;;;18.71;79.88;99858.56;5118654;28;20032;-75
2022/06/25 09:25:06;;;;;;;11.68;3.13;;;;;;;18.69;80.87;99843.22;5107989;28;20479;-74
2022/06/25 09:27:33;;;;;;;12.20;2.92;;;;;;;18.72;80.58;99834.06;5117474;28;20039;-73
2022/06/25 09:30:00;;;;;;;11.13;3.17;;;;;;;18.75;80.04;99836.19;5118627;28;20036;-73
2022/06/25 09:32:25;;;;;;;13.23;3.30;;;;;;;18.76;79.93;99837.81;5062941;28;20101;-75
2022/06/25 09:34:50;;;;;;;8.93;3.03;;;;;;;18.81;78.77;99837.53;5112201;28;20039;-74
2022/06/25 09:37:17;;;;;;;12.48;3.40;;;;;;;18.87;78.58;99836.06;5118216;28;20530;-73
2022/06/25 09:39:44;;;;;;;12.15;3.53;;;;;;;18.94;78.03;99833.44;5118543;28;20032;-74
2022/06/25 09:42:22;;;;;;;7.20;2.40;;;;;;;19.04;77.36;99845.28;5107437;28;20062;-73
2022/06/25 09:44:48;;;;;;;11.60;2.88;;;;;;;19.10;76.71;99839.00;5092347;28;20506;-73
2022/06/25 09:47:14;;;;;;;10.55;2.45;;;;;;;19.21;76.48;99839.25;5118607;28;20027;-72
2022/06/25 09:49:39;;;;;;;9.05;2.20;;;;;;;19.31;75.68;99838.66;5096626;28;20035;-73
2022/06/25 09:52:05;;;;;;;11.60;2.63;;;;;;;19.41;75.56;99843.69;5093601;28;20043;-73
2022/06/25 09:54:31;;;;;;;7.90;2.38;;;;;;;19.53;76.32;99839.09;5111723;28;20377;-73
2022/06/25 09:56:56;;;;;;;6.68;2.53;;;;;;;19.65;76.16;99836.13;5118373;28;20027;-73
2022/06/25 09:59:25;;;;;;;14.23;3.00;;;;;;;19.78;76.11;99834.84;5099063;28;20700;-73
2022/06/25 10:01:50;;;;;;;12.57;3.08;;;;;;;19.95;76.56;99847.63;5078591;28;20024;-73
2022/06/25 10:04:16;;;;;;;11.48;2.70;;;;;;;20.14;74.73;99843.94;5104680;28;20081;-73
2022/06/25 10:06:42;;;;;;;14.65;3.00;;;;;;;20.33;74.18;99842.25;5098245;28;20047;-73
2022/06/25 10:09:08;;;;;;;12.68;2.67;;;;;;;20.49;72.11;99840.13;5098083;28;20028;-72
2022/06/25 10:11:35;;;;;;;12.43;2.97;;;;;;;20.65;70.55;99843.66;5111652;28;20058;-73
2022/06/25 10:14:01;;;;;;;12.98;2.35;;;;;;;20.81;70.42;99839.84;5099257;28;20046;-73
2022/06/25 10:16:27;;;;;;;13.60;2.47;;;;;;;20.97;69.73;99832.03;5115938;28;20269;-73
2022/06/25 10:18:52;;;;;;;12.13;2.50;;;;;;;21.11;67.89;99843.50;5117905;28;20531;-74
2022/06/25 10:21:19;;;;;;;10.02;2.40;;;;;;;21.27;67.14;99834.06;5117010;28;20031;-80
2022/06/25 10:23:45;;;;;;;9.05;2.50;;;;;;;21.47;66.39;99838.38;5072593;28;20111;-80
2022/06/25 10:26:12;;;;;;;9.77;2.55;;;;;;;21.67;65.87;99838.22;5093867;28;20055;-80
2022/06/25 10:28:37;;;;;;;12.25;2.00;;;;;;;21.83;63.82;99841.63;5109598;28;20035;-74
2022/06/25 10:31:07;;;;;;;8.77;2.10;;;;;;;22.03;63.43;99834.56;5110008;28;20053;-75
2022/06/25 10:33:57;;;;;;;11.45;2.00;;;;;;;22.25;61.80;99837.66;5106463;28;20079;-73
2022/06/25 10:36:46;;;;;;;5.97;1.70;;;;;;;22.49;61.45;99831.41;5116550;28;20066;-74
2022/06/25 10:39:26;;;;;;;8.77;2.03;;;;;;;22.68;61.00;99829.56;5115429;28;20032;-75
2022/06/25 10:45:04;;;;;;;5.50;1.17;;;;;;;23.05;57.82;99825.78;5115076;28;20045;-75
2022/06/25 10:47:39;;;;;;;5.03;1.42;;;;;;;23.15;56.52;99833.50;5106323;28;20044;-74
2022/06/25 10:50:20;;;;;;;4.00;1.23;;;;;;;23.34;56.55;99826.72;5090894;28;20032;-74
2022/06/25 10:53:01;;;;;;;10.50;1.67;;;;;;;23.48;56.86;99809.78;5117240;28;20040;-75
2022/06/25 10:55:27;;;;;;;7.43;1.75;;;;;;;23.57;54.94;99815.09;5099819;28;20500;-75
2022/06/25 10:58:07;;;;;;;7.60;1.30;;;;;;;23.68;53.47;99809.44;5095910;28;20028;-74
2022/06/25 11:00:51;;;;;;;7.20;1.92;;;;;;;23.71;52.85;99809.50;5059990;28;20064;-75
2022/06/25 11:03:17;;;;;;;7.00;1.85;;;;;;;23.79;52.57;99805.50;5074561;28;20020;-74
2022/06/25 11:05:44;;;;;;;4.97;1.80;;;;;;;23.89;52.98;99811.56;5061142;28;20035;-74
2022/06/25 11:08:10;;;;;;;7.70;1.83;;;;;;;24.00;52.57;99815.25;5074869;28;20494;-74
2022/06/25 11:10:37;;;;;;;6.78;1.90;;;;;;;24.05;52.23;99815.66;5078005;28;20028;-74
2022/06/25 11:13:05;;;;;;;5.63;1.98;;;;;;;24.17;52.30;99811.63;5093230;28;20058;-74
2022/06/25 11:15:41;;;;;;;6.68;1.80;;;;;;;24.22;51.88;99818.94;5078138;28;20039;-75
2022/06/25 11:18:10;;;;;;;8.98;1.80;;;;;;;24.30;51.74;99812.84;5078107;28;20106;-74
2022/06/25 11:20:36;;;;;;;7.55;2.25;;;;;;;24.35;51.26;99807.97;5095173;28;20032;-74
2022/06/25 11:23:05;;;;;;;8.15;1.70;;;;;;;24.42;51.48;99803.13;5074611;28;20046;-75
2022/06/25 11:28:52;;;;;;;5.68;1.67;;;;;;;24.68;51.05;99801.94;5076740;28;20036;-74
2022/06/25 11:31:19;;;;;;;8.23;1.58;;;;;;;24.77;50.88;99803.53;5077200;28;20038;-76
2022/06/25 11:33:45;;;;;;;7.85;1.73;;;;;;;24.84;50.52;99781.59;5057470;28;20039;-74
2022/06/25 11:36:10;;;;;;;6.13;1.70;;;;;;;24.90;49.16;99788.50;5043716;28;20488;-73
2022/06/25 11:38:39;;;;;;;6.75;1.88;;;;;;;24.92;48.80;99774.69;5077833;28;20043;-73
2022/06/25 11:41:04;;;;;;;4.68;1.50;;;;;;;24.89;49.33;99783.22;5094352;28;20038;-74
2022/06/25 11:43:30;;;;;;;6.47;1.50;;;;;;;24.91;48.59;99775.13;5057066;28;20020;-74
2022/06/25 11:45:56;;;;;;;6.88;1.83;;;;;;;24.85;49.37;99785.25;5090782;28;20024;-74
2022/06/25 11:48:29;;;;;;;4.72;1.85;;;;;;;24.79;50.33;99812.44;5044539;28;20032;-76